Time;durP1;ratioP1;P1;durP2;ratioP2;P2;SDS_P1;SDS_P2;PMS_P1;PMS_P2;Temp;Humidity;BMP_temperature;BMP_pressure;BME280_temperature;BME280_humidity;BME280_pressure;Samples;Min_cycle;Max_cycle;Signal;HPM_P1;HPM_P2
2022/04/10 00:02:05;;;;;;;11.90;5.88;;;;;;;8.68;67.64;98603.53;5072943;28;20060;-78
2022/04/10 00:04:32;;;;;;;11.82;6.35;;;;;;;8.92;68.04;98657.97;5093825;28;20044;-79
2022/04/10 00:06:59;;;;;;;9.65;6.25;;;;;;;8.81;67.52;98639.84;5093818;28;20055;-79
2022/04/10 00:09:26;;;;;;;9.32;6.00;;;;;;;8.85;67.77;98660.66;5093616;28;20052;-78
2022/04/10 00:11:53;;;;;;;9.32;5.68;;;;;;;8.77;68.55;98642.47;5092826;28;20424;-77
2022/04/10 00:14:20;;;;;;;10.77;6.28;;;;;;;8.80;67.88;98648.53;5093330;28;20047;-77
2022/04/10 00:16:46;;;;;;;9.13;5.88;;;;;;;8.78;68.02;98645.09;5092874;28;20450;-78
2022/04/10 00:19:13;;;;;;;10.13;6.15;;;;;;;8.70;68.08;98622.59;5093933;28;20151;-77
2022/04/10 00:21:41;;;;;;;11.25;6.00;;;;;;;8.71;67.89;98638.22;5092954;28;20059;-78
2022/04/10 00:24:08;;;;;;;8.88;5.10;;;;;;;8.60;68.21;98598.38;5093519;28;20071;-78
2022/04/10 00:26:35;;;;;;;12.88;5.97;;;;;;;8.70;68.62;98627.81;5093165;28;20063;-78
2022/04/10 00:29:03;;;;;;;9.93;5.97;;;;;;;8.53;68.57;98594.97;5092862;28;20056;-78
2022/04/10 00:31:30;;;;;;;10.32;5.60;;;;;;;8.66;68.47;98620.91;5092942;28;20048;-78
2022/04/10 00:33:58;;;;;;;13.00;6.00;;;;;;;8.57;68.78;98595.81;5092728;28;20056;-78
2022/04/10 00:36:25;;;;;;;9.40;5.80;;;;;;;8.65;68.51;98603.53;5092768;28;20056;-77
2022/04/10 00:38:52;;;;;;;8.82;5.53;;;;;;;8.55;68.79;98594.97;5092788;28;20439;-77
2022/04/10 00:41:19;;;;;;;11.05;6.07;;;;;;;8.61;68.71;98595.75;5091994;28;20578;-78
2022/04/10 00:44:10;;;;;;;12.35;6.30;;;;;;;8.56;68.60;98597.56;5092943;28;20497;-78
2022/04/10 00:46:38;;;;;;;12.60;6.43;;;;;;;8.55;68.72;98594.97;5093418;28;20056;-78
2022/04/10 00:49:05;;;;;;;15.10;7.10;;;;;;;8.53;68.81;98594.97;5075239;28;20048;-77
2022/04/10 00:51:46;;;;;;;17.80;6.65;;;;;;;8.58;68.66;98594.91;5093091;28;20517;-79
2022/04/10 00:54:16;;;;;;;14.85;6.90;;;;;;;8.56;69.21;98586.25;5093379;28;20083;-78
2022/04/10 00:56:44;;;;;;;16.33;7.57;;;;;;;8.41;69.39;98556.06;5091481;28;20056;-78
2022/04/10 00:59:13;;;;;;;13.90;7.50;;;;;;;8.57;69.23;98585.41;5092733;28;20048;-77
2022/04/10 01:01:45;;;;;;;13.40;6.80;;;;;;;8.54;69.56;98564.59;5093052;28;20052;-78
2022/04/10 01:04:32;;;;;;;13.80;6.88;;;;;;;8.49;69.34;98569.84;5091583;28;20044;-78
2022/04/10 01:07:00;;;;;;;12.93;6.68;;;;;;;8.56;69.45;98592.34;5092721;28;20574;-78
2022/04/10 01:09:29;;;;;;;14.43;6.55;;;;;;;8.56;69.48;98584.53;5091988;28;20090;-78
2022/04/10 01:11:56;;;;;;;12.70;6.45;;;;;;;8.52;69.65;98582.84;5091944;28;20063;-78
2022/04/10 01:14:26;;;;;;;12.23;6.55;;;;;;;8.49;70.25;98571.59;5091728;28;20063;-78
2022/04/10 01:16:53;;;;;;;11.27;6.15;;;;;;;8.51;70.30;98582.84;5091389;28;20138;-79
2022/04/10 01:19:21;;;;;;;11.60;6.28;;;;;;;8.48;71.12;98581.13;5091499;28;20060;-77
2022/04/10 01:21:57;;;;;;;11.77;6.30;;;;;;;8.46;70.99;98569.03;5091612;28;20052;-79
2022/04/10 01:24:25;;;;;;;12.50;6.53;;;;;;;8.37;71.61;98578.59;5091646;28;20048;-79
2022/04/10 01:26:52;;;;;;;15.07;6.63;;;;;;;8.32;71.98;98582.94;5091953;28;20051;-79
2022/04/10 01:29:23;;;;;;;13.88;6.22;;;;;;;8.27;72.05;98586.47;5091222;28;20056;-79
2022/04/10 01:31:50;;;;;;;10.90;6.28;;;;;;;8.28;72.46;98590.78;5090874;28;20444;-77
2022/04/10 01:34:17;;;;;;;12.20;6.20;;;;;;;8.17;72.23;98565.75;5085938;28;20102;-77
2022/04/10 01:36:45;;;;;;;9.48;6.05;;;;;;;8.27;72.33;98584.75;5071273;28;20048;-78
2022/04/10 01:39:15;;;;;;;10.15;5.40;;;;;;;8.23;72.81;98583.03;5069684;28;20051;-79
2022/04/10 01:41:45;;;;;;;11.95;5.70;;;;;;;8.15;73.22;98596.13;5070936;28;20116;-78
2022/04/10 01:44:13;;;;;;;10.25;5.95;;;;;;;8.16;73.43;98582.22;5089408;28;20531;-77
2022/04/10 01:46:40;;;;;;;13.02;5.50;;;;;;;8.14;73.65;98588.31;5091381;28;20056;-78
2022/04/10 01:49:09;;;;;;;10.27;5.65;;;;;;;8.09;73.89;98572.75;5093677;28;20147;-78
2022/04/10 01:51:37;;;;;;;8.68;5.47;;;;;;;8.09;74.28;98574.50;5094925;28;20113;-78
2022/04/10 01:54:05;;;;;;;11.13;5.93;;;;;;;8.03;74.56;98569.31;5094561;28;20420;-78
2022/04/10 01:56:32;;;;;;;9.05;5.85;;;;;;;8.02;74.71;98572.78;5095945;28;20060;-78
2022/04/10 01:59:01;;;;;;;13.15;6.25;;;;;;;8.03;75.06;98572.78;5094899;28;20074;-78
2022/04/10 02:01:28;;;;;;;12.55;6.00;;;;;;;8.02;75.42;98573.63;5095034;28;20063;-76
2022/04/10 02:03:56;;;;;;;12.07;6.38;;;;;;;7.88;75.49;98542.53;5094825;28;20593;-77
2022/04/10 02:06:23;;;;;;;12.85;6.38;;;;;;;7.99;75.01;98558.06;5096200;28;20520;-77
2022/04/10 02:08:52;;;;;;;9.57;6.15;;;;;;;7.92;75.79;98546.84;5096184;28;20150;-77
2022/04/10 02:11:21;;;;;;;10.15;6.05;;;;;;;7.95;76.01;98559.81;5094996;28;20047;-79
2022/04/10 02:13:53;;;;;;;10.20;6.13;;;;;;;7.80;75.75;98531.31;5097579;28;20505;-78
2022/04/10 02:16:21;;;;;;;13.02;6.72;;;;;;;7.94;75.90;98547.69;5095361;28;20504;-77
2022/04/10 02:18:48;;;;;;;14.10;6.63;;;;;;;7.93;76.06;98553.75;5094960;28;20059;-77
2022/04/10 02:21:15;;;;;;;7.95;5.57;;;;;;;7.81;76.10;98527.88;5096225;28;20052;-77
2022/04/10 02:23:44;;;;;;;12.20;6.07;;;;;;;7.68;75.65;98508.88;5095400;28;20142;-79
2022/04/10 02:26:12;;;;;;;8.00;5.70;;;;;;;7.87;76.45;98540.84;5096157;28;20052;-78
2022/04/10 02:28:41;;;;;;;12.75;6.20;;;;;;;7.84;76.28;98530.44;5094853;28;20109;-78
2022/04/10 02:31:08;;;;;;;12.90;6.43;;;;;;;7.93;76.23;98548.56;5094574;28;20441;-79
2022/04/10 02:33:37;;;;;;;12.02;6.05;;;;;;;7.92;76.81;98541.66;5095817;28;20487;-78
2022/04/10 02:36:05;;;;;;;11.05;5.88;;;;;;;7.91;76.47;98534.72;5094920;28;20472;-78
2022/04/10 02:38:35;;;;;;;10.45;6.03;;;;;;;7.90;76.69;98538.19;5095590;28;20052;-80
2022/04/10 02:41:04;;;;;;;10.05;5.80;;;;;;;7.91;76.79;98539.91;5094330;28;20044;-78
2022/04/10 02:43:31;;;;;;;12.00;6.40;;;;;;;7.91;76.62;98544.25;5095693;28;20052;-80
2022/04/10 02:46:02;;;;;;;12.13;6.20;;;;;;;7.89;77.05;98544.25;5094535;28;20056;-79
2022/04/10 02:48:30;;;;;;;10.52;6.30;;;;;;;7.90;77.21;98559.00;5094783;28;20155;-79
2022/04/10 02:51:02;;;;;;;13.75;6.97;;;;;;;7.83;77.24;98533.03;5094966;28;20054;-78
2022/04/10 02:53:30;;;;;;;12.57;6.65;;;;;;;7.90;77.35;98543.41;5095580;28;20397;-78
2022/04/10 02:55:58;;;;;;;12.05;6.55;;;;;;;7.92;77.35;98539.06;5098915;28;20024;-78
2022/04/10 02:58:44;;;;;;;11.43;6.82;;;;;;;7.93;77.37;98532.09;5113755;28;20132;-78
2022/04/10 03:01:30;;;;;;;10.73;6.47;;;;;;;8.03;77.44;98546.78;5113774;28;20086;-78
2022/04/10 03:04:17;;;;;;;10.85;6.30;;;;;;;7.97;77.35;98545.06;5093683;28;20634;-77
2022/04/10 03:07:03;;;;;;;13.82;6.72;;;;;;;7.95;77.65;98544.22;5095437;28;20097;-77
2022/04/10 03:09:49;;;;;;;12.18;6.57;;;;;;;7.92;77.13;98544.25;5093484;28;20475;-80
2022/04/10 03:12:35;;;;;;;13.48;7.38;;;;;;;7.86;77.42;98528.69;5093551;28;20062;-79
2022/04/10 03:15:20;;;;;;;10.45;6.43;;;;;;;7.97;77.50;98539.00;5093468;28;20050;-79
2022/04/10 03:18:06;;;;;;;14.07;7.28;;;;;;;7.96;77.25;98538.16;5093200;28;20074;-78
2022/04/10 03:20:52;;;;;;;13.52;7.28;;;;;;;7.99;77.46;98551.13;5079500;28;20635;-78
2022/04/10 03:23:39;;;;;;;13.43;6.90;;;;;;;7.98;77.56;98539.00;5093499;28;20523;-79
2022/04/10 03:26:26;;;;;;;12.85;7.30;;;;;;;8.00;77.90;98547.66;5092970;28;20510;-79
2022/04/10 03:29:12;;;;;;;11.70;6.88;;;;;;;8.04;77.67;98543.28;5093029;28;20055;-80
2022/04/10 03:31:59;;;;;;;13.55;7.72;;;;;;;7.96;77.34;98526.91;5093412;28;20063;-79
2022/04/10 03:34:45;;;;;;;11.43;7.05;;;;;;;8.06;77.91;98556.28;5093288;28;20047;-79
2022/04/10 03:37:31;;;;;;;12.73;7.47;;;;;;;7.99;77.41;98553.72;5093149;28;20055;-79
2022/04/10 03:40:17;;;;;;;12.90;6.88;;;;;;;7.99;77.25;98534.66;5094186;28;20055;-79
2022/04/10 03:43:09;;;;;;;12.23;7.05;;;;;;;7.97;77.57;98520.81;5092679;28;20054;-78
2022/04/10 03:45:55;;;;;;;11.57;6.90;;;;;;;8.05;77.61;98538.97;5094157;28;20551;-80
2022/04/10 03:48:41;;;;;;;13.73;7.45;;;;;;;8.09;77.85;98544.13;5092771;28;20535;-79
2022/04/10 03:51:27;;;;;;;14.18;7.70;;;;;;;8.17;77.60;98551.84;5079320;28;20113;-80
2022/04/10 03:54:13;;;;;;;15.68;7.85;;;;;;;8.06;77.42;98515.53;5093916;28;20067;-79
2022/04/10 03:56:59;;;;;;;13.65;7.68;;;;;;;8.16;77.45;98531.94;5092209;28;20071;-80
2022/04/10 03:59:45;;;;;;;14.95;7.43;;;;;;;8.35;77.57;98563.88;5092539;28;20133;-78
2022/04/10 04:02:30;;;;;;;14.13;7.63;;;;;;;8.38;77.64;98562.09;5093745;28;20425;-79
2022/04/10 04:05:17;;;;;;;14.10;7.95;;;;;;;8.43;77.30;98559.47;5094083;28;20131;-79
2022/04/10 04:08:04;;;;;;;12.65;7.60;;;;;;;8.30;77.37;98524.88;5092509;28;20460;-79
2022/04/10 04:10:51;;;;;;;12.45;7.72;;;;;;;8.46;76.70;98556.88;5091945;28;20070;-79
2022/04/10 04:13:40;;;;;;;15.95;7.80;;;;;;;8.43;77.46;98562.06;5092501;28;20139;-78
2022/04/10 04:16:27;;;;;;;14.23;8.20;;;;;;;8.45;77.25;98564.69;5092448;28;20051;-79
2022/04/10 04:19:13;;;;;;;14.32;7.88;;;;;;;8.44;77.47;98552.56;5092974;28;20059;-79
2022/04/10 04:21:59;;;;;;;16.83;8.57;;;;;;;8.43;76.79;98554.28;5091970;28;20058;-77
2022/04/10 04:24:46;;;;;;;17.63;8.90;;;;;;;8.42;77.53;98557.75;5091895;28;20051;-79
2022/04/10 04:27:32;;;;;;;15.48;8.68;;;;;;;8.50;77.22;98563.78;5092405;28;20524;-81
2022/04/10 04:30:18;;;;;;;15.38;8.70;;;;;;;8.46;77.36;98567.28;5091902;28;20140;-79
2022/04/10 04:33:08;;;;;;;17.20;9.23;;;;;;;8.40;77.45;98564.69;5092049;28;20140;-79
2022/04/10 04:35:53;;;;;;;16.55;8.93;;;;;;;8.50;77.52;98581.13;5093070;28;20113;-78
2022/04/10 04:38:39;;;;;;;18.58;9.40;;;;;;;8.54;77.34;98581.09;5093298;28;20109;-79
2022/04/10 04:41:28;;;;;;;16.92;9.38;;;;;;;8.52;77.37;98587.19;5078162;28;20075;-78
2022/04/10 04:44:15;;;;;;;17.30;9.65;;;;;;;8.54;77.50;98575.00;5091701;28;20059;-78
2022/04/10 04:47:02;;;;;;;19.38;9.20;;;;;;;8.56;77.84;98589.75;5091897;28;20055;-79
2022/04/10 04:49:48;;;;;;;18.05;9.32;;;;;;;8.60;77.34;98569.75;5091911;28;20428;-77
2022/04/10 04:52:34;;;;;;;18.42;9.90;;;;;;;8.63;77.45;98592.31;5092024;28;20059;-78
2022/04/10 04:55:20;;;;;;;18.08;9.68;;;;;;;8.39;77.81;98547.38;5089629;28;20518;-80
2022/04/10 04:58:06;;;;;;;18.90;10.32;;;;;;;8.65;77.90;98598.31;5071351;28;20058;-78
2022/04/10 05:00:55;;;;;;;18.08;10.23;;;;;;;8.73;77.20;98600.00;5071908;28;20078;-78
2022/04/10 05:03:42;;;;;;;18.85;9.52;;;;;;;8.65;77.40;98561.88;5072813;28;20063;-79
2022/04/10 05:06:29;;;;;;;19.75;10.85;;;;;;;8.75;77.50;98573.94;5072171;28;20141;-79
2022/04/10 05:09:16;;;;;;;22.58;10.02;;;;;;;8.88;77.20;98591.16;5071650;28;20085;-79
2022/04/10 05:12:01;;;;;;;19.35;9.65;;;;;;;8.72;76.90;98577.44;5071567;28;20548;-77
2022/04/10 05:14:49;;;;;;;21.42;11.25;;;;;;;8.89;76.92;98599.88;5090920;28;20127;-78
2022/04/10 05:17:39;;;;;;;19.60;10.80;;;;;;;8.79;77.18;98609.47;5088890;28;20397;-80
2022/04/10 05:20:27;;;;;;;25.60;11.73;;;;;;;8.60;77.66;98587.97;5089367;28;20101;-80
2022/04/10 05:23:33;;;;;;;22.55;11.90;;;;;;;8.73;78.16;98615.63;5093405;28;20089;-81
2022/04/10 05:26:26;;;;;;;24.58;12.05;;;;;;;8.79;77.35;98612.94;5095771;28;20569;-80
2022/04/10 05:29:15;;;;;;;21.08;11.07;;;;;;;8.78;77.65;98616.44;5091837;28;20424;-78
2022/04/10 05:32:02;;;;;;;25.13;10.98;;;;;;;8.75;77.66;98581.75;5095416;28;20567;-78
2022/04/10 05:34:48;;;;;;;20.42;10.15;;;;;;;9.00;77.01;98624.91;5095565;28;20429;-79
2022/04/10 05:37:40;;;;;;;19.73;9.98;;;;;;;8.84;77.23;98612.94;5082066;28;20058;-78
2022/04/10 05:40:27;;;;;;;24.33;11.57;;;;;;;8.77;77.86;98611.25;5095422;28;20534;-79
2022/04/10 05:43:14;;;;;;;20.15;10.32;;;;;;;8.88;78.00;98622.41;5095131;28;20059;-79
2022/04/10 05:46:03;;;;;;;20.92;9.40;;;;;;;8.83;77.61;98611.19;5096584;28;20070;-80
2022/04/10 05:48:51;;;;;;;15.45;8.82;;;;;;;8.86;77.97;98633.72;5095536;28;20124;-81
2022/04/10 05:51:38;;;;;;;19.80;9.25;;;;;;;8.75;77.97;98616.44;5095703;28;20058;-78
2022/04/10 05:54:24;;;;;;;17.48;9.25;;;;;;;8.90;77.63;98627.63;5095200;28;20067;-79
2022/04/10 05:57:12;;;;;;;21.63;9.52;;;;;;;8.83;77.88;98616.41;5096536;28;20141;-80
2022/04/10 05:59:58;;;;;;;17.92;9.57;;;;;;;9.00;78.36;98622.28;5094772;28;20059;-79
2022/04/10 06:02:44;;;;;;;22.65;9.48;;;;;;;9.00;77.69;98601.47;5094864;28;20055;-77
2022/04/10 06:05:37;;;;;;;16.90;9.27;;;;;;;9.18;78.07;98628.19;5094762;28;20063;-78
2022/04/10 06:08:30;;;;;;;17.10;9.32;;;;;;;9.20;77.16;98634.25;5094976;28;20425;-78
2022/04/10 06:11:16;;;;;;;19.20;9.93;;;;;;;9.14;78.20;98621.28;5094862;28;20050;-79
2022/04/10 06:14:01;;;;;;;19.58;9.55;;;;;;;9.21;77.83;98647.28;5094421;28;20132;-79
2022/04/10 06:16:30;;;;;;;20.70;9.43;;;;;;;9.18;77.82;98646.44;5094516;28;20059;-81
2022/04/10 06:18:58;;;;;;;17.70;9.52;;;;;;;9.15;77.55;98642.13;5060945;28;20066;-80
2022/04/10 06:21:26;;;;;;;14.95;9.30;;;;;;;9.07;77.57;98625.69;5076658;28;20508;-79
2022/04/10 06:23:54;;;;;;;15.88;9.20;;;;;;;9.21;77.63;98655.09;5094532;28;20181;-79
2022/04/10 06:26:51;;;;;;;15.88;8.95;;;;;;;9.15;77.39;98631.69;5076414;28;20502;-78
2022/04/10 06:29:20;;;;;;;18.13;8.88;;;;;;;9.38;77.86;98675.75;5061584;28;20501;-77
2022/04/10 06:31:55;;;;;;;15.95;9.30;;;;;;;9.28;77.33;98650.69;5094225;28;20134;-80
2022/04/10 06:34:26;;;;;;;19.27;9.35;;;;;;;9.45;77.30;98676.56;5111167;28;20059;-80
2022/04/10 06:36:53;;;;;;;17.02;9.07;;;;;;;9.25;77.48;98660.25;5094958;28;20459;-81
2022/04/10 06:39:21;;;;;;;14.55;9.05;;;;;;;9.30;77.86;98666.31;5095544;28;20113;-79
2022/04/10 06:41:52;;;;;;;15.45;9.13;;;;;;;9.56;77.29;98705.13;5080113;28;20135;-80
2022/04/10 06:44:55;;;;;;;13.73;8.52;;;;;;;9.62;77.02;98697.22;5074866;28;20136;-78
2022/04/10 06:47:42;;;;;;;14.32;8.80;;;;;;;9.67;76.95;98708.47;5100361;28;20051;-81
2022/04/10 06:50:12;;;;;;;14.73;8.85;;;;;;;9.44;76.38;98674.81;5110333;28;20077;-79
2022/04/10 06:52:42;;;;;;;14.55;8.95;;;;;;;9.63;77.55;98698.94;5108475;28;20066;-79
2022/04/10 06:55:11;;;;;;;15.55;8.85;;;;;;;9.74;76.93;98697.06;5108389;28;20519;-78
2022/04/10 06:57:39;;;;;;;18.65;9.35;;;;;;;9.79;76.90;98695.28;5076518;28;20056;-80
2022/04/10 07:00:07;;;;;;;18.70;9.10;;;;;;;9.80;76.59;98694.38;5076281;28;20139;-79
2022/04/10 07:02:37;;;;;;;14.20;8.75;;;;;;;9.62;76.29;98656.38;5093148;28;20133;-79
2022/04/10 07:05:07;;;;;;;14.27;8.93;;;;;;;9.89;76.20;98675.16;5093103;28;20048;-80
2022/04/10 07:07:39;;;;;;;17.25;9.27;;;;;;;10.04;75.56;98685.41;5094183;28;20055;-79
2022/04/10 07:10:06;;;;;;;16.88;9.43;;;;;;;10.25;75.30;98709.47;5093868;28;20139;-79
2022/04/10 07:12:33;;;;;;;15.15;8.52;;;;;;;10.48;75.24;98721.41;5093118;28;20052;-80
2022/04/10 07:15:02;;;;;;;16.17;9.85;;;;;;;10.59;74.94;98711.66;5094059;28;20406;-80
2022/04/10 07:17:32;;;;;;;17.08;9.88;;;;;;;10.81;74.27;98718.25;5094040;28;20497;-78
2022/04/10 07:20:03;;;;;;;16.80;10.32;;;;;;;10.76;73.78;98712.25;5077571;28;20129;-78
2022/04/10 07:25:19;;;;;;;15.45;9.45;;;;;;;10.88;73.82;98733.84;5094068;28;20048;-81
2022/04/10 07:27:47;;;;;;;21.00;11.57;;;;;;;10.99;74.06;98735.41;5092828;28;20048;-80
2022/04/10 07:30:34;;;;;;;18.65;10.27;;;;;;;11.02;73.41;98721.41;5093616;28;20113;-78
2022/04/10 07:33:07;;;;;;;17.02;10.32;;;;;;;11.19;73.25;98739.44;5092776;28;20152;-78
2022/04/10 07:35:44;;;;;;;16.58;9.63;;;;;;;11.15;73.18;98754.28;5075858;28;20063;-79
2022/04/10 07:38:18;;;;;;;18.75;11.02;;;;;;;10.96;73.56;98761.56;5076838;28;20101;-79
2022/04/10 07:40:46;;;;;;;17.27;9.95;;;;;;;10.93;73.88;98777.31;5094079;28;20079;-79
2022/04/10 07:43:21;;;;;;;16.42;10.05;;;;;;;10.93;73.63;98776.44;5092400;28;20082;-78
2022/04/10 07:48:47;;;;;;;15.45;9.18;;;;;;;10.76;73.79;98777.56;5072389;28;20083;-79
2022/04/10 07:51:18;;;;;;;17.75;10.63;;;;;;;10.75;74.34;98796.69;5072168;28;20044;-78
2022/04/10 07:53:55;;;;;;;23.55;13.82;;;;;;;10.66;73.94;98781.16;5055181;28;20052;-80
2022/04/10 07:56:24;;;;;;;18.20;10.80;;;;;;;10.75;74.05;98796.69;5055232;28;20062;-78
2022/04/10 07:58:51;;;;;;;14.63;9.98;;;;;;;10.76;73.75;98794.97;5055784;28;20065;-79
2022/04/10 08:01:25;;;;;;;17.35;11.13;;;;;;;10.71;73.69;98805.50;5054880;28;20101;-79
2022/04/10 08:03:53;;;;;;;15.90;10.07;;;;;;;10.81;73.86;98827.09;5060513;28;20492;-79
2022/04/10 08:06:40;;;;;;;16.67;10.25;;;;;;;10.71;74.14;98802.00;5073373;28;20056;-80
2022/04/10 08:09:07;;;;;;;19.23;10.82;;;;;;;10.49;73.94;98777.94;5071978;28;20052;-79
2022/04/10 08:11:34;;;;;;;18.00;10.93;;;;;;;10.72;73.89;98822.88;5073057;28;20075;-80
2022/04/10 08:14:07;;;;;;;16.92;11.00;;;;;;;10.76;74.03;98829.78;5056164;28;20118;-80
2022/04/10 08:16:35;;;;;;;17.65;11.18;;;;;;;10.70;73.52;98813.34;5070920;28;20480;-79
2022/04/10 08:19:02;;;;;;;20.42;11.25;;;;;;;10.95;73.72;98838.25;5083945;28;20056;-77
2022/04/10 08:21:29;;;;;;;17.05;11.10;;;;;;;11.01;72.97;98845.09;5091750;28;20141;-79
2022/04/10 08:23:57;;;;;;;17.77;10.98;;;;;;;11.02;72.95;98825.94;5093135;28;20055;-79
2022/04/10 08:26:24;;;;;;;17.60;11.35;;;;;;;10.96;72.76;98836.47;5074639;28;20060;-79
2022/04/10 08:28:51;;;;;;;18.20;11.52;;;;;;;10.93;72.88;98849.59;5070826;28;20062;-79
2022/04/10 08:31:18;;;;;;;14.38;10.15;;;;;;;10.85;72.74;98854.94;5071733;28;20098;-80
2022/04/10 08:33:46;;;;;;;15.25;10.13;;;;;;;10.68;72.88;98836.88;5073173;28;20060;-80
2022/04/10 08:36:13;;;;;;;16.95;10.52;;;;;;;10.81;72.97;98876.75;5072520;28;20131;-80
2022/04/10 08:38:40;;;;;;;20.13;11.10;;;;;;;10.73;72.66;98855.94;5071895;28;20048;-81
2022/04/10 08:41:07;;;;;;;15.95;10.65;;;;;;;10.71;72.82;98862.06;5085853;28;20070;-80
2022/04/10 08:43:38;;;;;;;;;;;;;;;10.60;73.14;98881.38;5091584;28;20591;-79
2022/04/10 08:46:26;;;;;;;14.25;9.43;;;;;;;10.51;72.87;98888.44;5092908;28;19927;-79
2022/04/10 08:49:08;;;;;;;5.55;3.50;;;;;;;9.89;70.95;98896.00;5075166;28;20094;-78
2022/04/10 08:51:35;;;;;;;4.03;2.80;;;;;;;9.47;71.00;98919.84;5092879;28;20052;-80
2022/04/10 08:54:02;;;;;;;3.15;2.60;;;;;;;9.12;71.03;98888.78;5092936;28;20056;-80
2022/04/10 08:56:29;;;;;;;2.70;2.30;;;;;;;9.14;70.62;98916.59;5091492;28;20059;-79
2022/04/10 08:58:56;;;;;;;3.47;1.98;;;;;;;9.10;70.40;98932.22;5093009;28;20052;-80
2022/04/10 09:01:23;;;;;;;3.92;2.05;;;;;;;9.03;70.38;98936.59;5093529;28;20497;-78
2022/04/10 09:03:50;;;;;;;3.03;2.38;;;;;;;9.00;70.29;98939.22;5085646;28;20107;-80
2022/04/10 09:06:17;;;;;;;2.30;1.85;;;;;;;9.04;70.40;98938.34;5101088;28;20048;-78
2022/04/10 09:08:45;;;;;;;3.28;1.75;;;;;;;8.96;70.21;98945.31;5093589;28;20125;-79
2022/04/10 09:11:13;;;;;;;2.22;2.00;;;;;;;8.93;70.76;98935.78;5093238;28;20063;-79
2022/04/10 09:13:47;;;;;;;3.63;1.92;;;;;;;8.91;70.32;98934.06;5091603;28;20048;-79
2022/04/10 09:16:16;;;;;;;2.72;1.80;;;;;;;8.97;70.65;98945.31;5090145;28;20101;-79
2022/04/10 09:18:48;;;;;;;3.30;1.83;;;;;;;8.96;70.80;98956.59;5091355;28;20055;-79
2022/04/10 09:21:16;;;;;;;2.88;1.88;;;;;;;8.89;70.46;98952.31;5085386;28;20066;-80
2022/04/10 09:24:17;;;;;;;5.32;2.00;;;;;;;8.84;71.03;98987.94;5075378;28;20429;-79
2022/04/10 09:26:49;;;;;;;3.35;1.85;;;;;;;8.82;71.07;98984.47;5028540;28;20110;-78
2022/04/10 09:29:20;;;;;;;3.80;2.30;;;;;;;8.71;71.05;98963.66;5073825;28;20052;-80
2022/04/10 09:31:48;;;;;;;1.60;1.50;;;;;;;9.09;70.05;98996.50;5091384;28;20055;-78
2022/04/10 09:34:17;;;;;;;2.35;1.63;;;;;;;9.25;70.10;98989.47;5091229;28;20117;-78
2022/04/10 09:37:07;;;;;;;2.35;1.90;;;;;;;9.50;69.41;99005.84;5092504;28;20119;-79
2022/04/10 09:39:36;;;;;;;3.00;1.25;;;;;;;9.61;67.92;99009.25;5092169;28;20500;-79
2022/04/10 09:42:12;;;;;;;2.15;1.90;;;;;;;9.32;68.54;98990.31;5074431;28;20425;-78
2022/04/10 09:44:59;;;;;;;5.07;2.13;;;;;;;9.41;68.96;99021.53;5078123;28;20099;-81
2022/04/10 09:47:27;;;;;;;2.42;2.00;;;;;;;9.07;69.12;98979.13;5092479;28;20051;-81
2022/04/10 09:50:04;;;;;;;5.57;2.50;;;;;;;8.62;69.16;98961.06;5090897;28;20048;-78
2022/04/10 09:52:35;;;;;;;6.63;3.60;;;;;;;9.22;70.13;99039.00;5091424;28;20052;-80
2022/04/10 09:55:03;;;;;;;3.17;2.97;;;;;;;9.22;69.09;99033.78;5092582;28;20056;-79
2022/04/10 09:57:30;;;;;;;5.18;3.10;;;;;;;9.34;68.62;99033.72;5092217;28;20063;-79
2022/04/10 10:00:02;;;;;;;4.43;3.45;;;;;;;9.49;68.18;99052.78;5092684;28;20044;-79
2022/04/10 10:02:38;;;;;;;4.03;3.45;;;;;;;9.23;67.82;99061.59;5090355;28;20051;-83
2022/04/10 10:05:07;;;;;;;3.20;3.00;;;;;;;9.07;68.11;99068.56;5090963;28;20067;-78
2022/04/10 10:07:36;;;;;;;4.05;3.20;;;;;;;9.14;67.80;99075.53;5064256;28;20048;-81
2022/04/10 10:10:03;;;;;;;3.90;3.08;;;;;;;9.26;67.68;99081.56;5094746;28;20461;-80
2022/04/10 10:12:30;;;;;;;4.20;2.95;;;;;;;9.21;66.59;99092.84;5094081;28;20048;-78
2022/04/10 10:14:57;;;;;;;3.13;2.60;;;;;;;9.29;66.25;99097.16;5094654;28;20040;-80
2022/04/10 10:17:25;;;;;;;3.10;2.53;;;;;;;9.29;65.64;99076.31;5094644;28;20398;-80
2022/04/10 10:19:53;;;;;;;3.15;2.80;;;;;;;9.53;65.30;99073.63;5095303;28;20451;-79
2022/04/10 10:22:20;;;;;;;3.53;2.78;;;;;;;9.83;65.39;99090.84;5093968;28;20106;-79
2022/04/10 10:24:50;;;;;;;3.38;2.70;;;;;;;9.95;64.81;99099.44;5090959;28;20040;-80
2022/04/10 10:27:32;;;;;;;3.00;2.80;;;;;;;9.83;65.01;99093.44;5094013;28;20538;-79
2022/04/10 10:30:38;;;;;;;3.65;2.85;;;;;;;10.08;64.69;99113.28;5093942;28;20054;-80
2022/04/10 10:33:16;;;;;;;3.25;2.50;;;;;;;10.20;64.11;99087.97;5094840;28;20445;-80
2022/04/10 10:35:55;;;;;;;2.83;2.50;;;;;;;10.05;63.03;99072.44;5094081;28;20040;-80
2022/04/10 10:38:28;;;;;;;2.95;2.67;;;;;;;10.28;63.26;99116.59;5095749;28;20055;-80
2022/04/10 10:41:22;;;;;;;3.85;2.63;;;;;;;10.18;63.57;99122.81;5096386;28;20147;-80
2022/04/10 10:43:58;;;;;;;4.10;2.47;;;;;;;10.05;63.09;99122.00;5096116;28;20056;-79
2022/04/10 10:46:33;;;;;;;3.53;2.40;;;;;;;9.96;63.65;99128.16;5113530;28;20067;-78
2022/04/10 10:49:20;;;;;;;2.72;2.40;;;;;;;9.81;63.87;99141.28;5111467;28;20051;-79
2022/04/10 10:51:51;;;;;;;2.40;2.08;;;;;;;9.28;64.04;99080.66;5114590;28;20044;-79
2022/04/10 10:54:21;;;;;;;2.88;2.50;;;;;;;9.56;64.03;99141.38;5094053;28;20459;-79
2022/04/10 10:57:25;;;;;;;3.63;2.55;;;;;;;9.54;64.70;99152.69;5094731;28;20071;-79
2022/04/10 11:00:17;;;;;;;3.83;2.90;;;;;;;9.49;65.32;99157.94;5093404;28;20056;-80
2022/04/10 11:02:52;;;;;;;7.45;3.10;;;;;;;9.42;65.01;99148.38;5092749;28;20501;-78
2022/04/10 11:05:32;;;;;;;3.00;2.70;;;;;;;9.52;64.72;99137.03;5093426;28;20047;-79
2022/04/10 11:08:09;;;;;;;3.65;2.90;;;;;;;9.68;64.76;99174.38;5093474;28;20101;-80
2022/04/10 11:10:39;;;;;;;4.32;3.00;;;;;;;9.61;64.73;99159.59;5094279;28;20051;-80
2022/04/10 11:13:09;;;;;;;3.65;2.50;;;;;;;9.68;64.75;99161.34;5094374;28;20070;-78
2022/04/10 11:15:54;;;;;;;3.15;2.78;;;;;;;9.61;64.59;99152.69;5094055;28;20135;-79
2022/04/10 11:18:22;;;;;;;5.07;3.00;;;;;;;9.61;64.26;99130.91;5094782;28;20451;-79
2022/04/10 11:20:59;;;;;;;4.05;2.90;;;;;;;9.35;63.99;99104.97;5111064;28;20058;-78
2022/04/10 11:23:30;;;;;;;2.55;2.35;;;;;;;9.66;64.20;99155.25;5094526;28;20135;-78
2022/04/10 11:26:08;;;;;;;3.25;2.70;;;;;;;9.48;64.68;99116.22;5094111;28;20417;-79
2022/04/10 11:29:03;;;;;;;4.18;2.90;;;;;;;9.72;64.16;99142.19;5092537;28;20067;-79
2022/04/10 11:31:47;;;;;;;3.70;2.83;;;;;;;9.79;64.26;99154.31;5092597;28;20528;-79
2022/04/10 11:34:25;;;;;;;3.60;2.25;;;;;;;9.91;63.90;99147.31;5075449;28;20052;-80
2022/04/10 11:36:57;;;;;;;3.00;2.60;;;;;;;10.07;63.71;99163.72;5093820;28;20044;-80
2022/04/10 11:39:29;;;;;;;2.65;2.45;;;;;;;10.09;63.24;99136.78;5093414;28;20063;-79
2022/04/10 11:42:01;;;;;;;3.72;2.53;;;;;;;10.01;63.74;99125.50;5075237;28;20098;-79
2022/04/10 11:44:29;;;;;;;2.70;2.50;;;;;;;9.98;63.40;99115.06;5093483;28;20075;-80
2022/04/10 11:46:59;;;;;;;2.88;2.53;;;;;;;10.14;63.50;99150.66;5093504;28;20044;-80
2022/04/10 11:49:26;;;;;;;3.20;2.80;;;;;;;10.17;63.46;99170.63;5093276;28;20056;-80
2022/04/10 11:51:58;;;;;;;4.00;3.13;;;;;;;10.23;63.06;99171.47;5092789;28;20506;-79
2022/04/10 11:54:36;;;;;;;4.00;3.15;;;;;;;10.22;63.17;99171.50;5092866;28;20062;-80
2022/04/10 11:57:05;;;;;;;3.08;2.75;;;;;;;9.96;63.33;99140.31;5094417;28;20060;-80
2022/04/10 11:59:34;;;;;;;3.38;3.08;;;;;;;10.06;63.35;99168.09;5094020;28;20463;-79
2022/04/10 12:02:15;;;;;;;3.72;3.10;;;;;;;9.97;63.34;99145.53;5094231;28;20052;-78
2022/04/10 12:04:49;;;;;;;6.22;3.40;;;;;;;9.93;63.79;99130.75;5057837;28;20040;-79
2022/04/10 12:07:21;;;;;;;6.60;4.38;;;;;;;10.13;63.49;99175.03;5092580;28;20060;-80
2022/04/10 12:09:54;;;;;;;2.83;2.55;;;;;;;10.12;63.68;99177.63;5092087;28;20056;-79
2022/04/10 12:12:33;;;;;;;3.58;2.70;;;;;;;9.72;63.58;99175.22;5073787;28;20052;-79
2022/04/10 12:15:00;;;;;;;3.58;2.58;;;;;;;9.57;63.34;99186.56;5071624;28;20179;-80
2022/04/10 12:17:28;;;;;;;2.88;2.65;;;;;;;9.51;63.77;99192.69;5072760;28;20099;-79
2022/04/10 12:20:22;;;;;;;3.15;2.60;;;;;;;9.17;64.08;99156.28;5071162;28;20132;-78